createdAt,value
2023-01-27T00:00:19.755Z,31.57
2023-01-27T00:03:09.035Z,32.97
2023-01-27T00:05:58.683Z,34.77
2023-01-27T00:08:47.296Z,31.37
2023-01-27T00:11:53.548Z,33.70
2023-01-27T00:14:43.593Z,33.27
2023-01-27T00:17:32.386Z,31.73
2023-01-27T00:20:42.899Z,31.40
2023-01-27T00:23:49.325Z,32.30
2023-01-27T00:26:38.054Z,31.13
2023-01-27T00:29:26.712Z,27.13
2023-01-27T00:32:34.000Z,31.23
2023-01-27T00:35:22.880Z,32.17
2023-01-27T00:38:11.512Z,28.70
2023-01-27T00:41:20.597Z,28.43
2023-01-27T00:44:13.184Z,29.17
2023-01-27T00:47:02.527Z,27.93
2023-01-27T00:49:53.179Z,31.90
2023-01-27T00:52:41.921Z,27.77
2023-01-27T00:55:31.455Z,27.87
2023-01-27T00:58:22.501Z,25.13
2023-01-27T01:01:14.759Z,25.93
2023-01-27T01:04:03.753Z,25.70
2023-01-27T01:06:54.539Z,25.90
2023-01-27T01:09:43.177Z,24.97
2023-01-27T01:12:31.877Z,26.07
2023-01-27T01:15:20.566Z,24.80
2023-01-27T01:18:10.528Z,27.03
2023-01-27T01:20:59.212Z,26.93
2023-01-27T01:23:49.591Z,26.03
2023-01-27T01:26:38.344Z,28.27
2023-01-27T01:29:27.650Z,32.17
2023-01-27T01:32:16.240Z,28.70
2023-01-27T01:35:05.717Z,26.80
2023-01-27T01:37:54.839Z,31.23
2023-01-27T01:40:45.675Z,29.93
2023-01-27T01:43:35.224Z,30.07
2023-01-27T01:46:23.959Z,32.77
2023-01-27T01:49:12.795Z,34.33
2023-01-27T01:52:06.947Z,32.00
2023-01-27T01:54:58.580Z,33.57
2023-01-27T01:57:49.001Z,35.77
2023-01-27T02:00:38.353Z,32.93
2023-01-27T02:03:32.241Z,35.10
2023-01-27T02:06:21.789Z,34.43
2023-01-27T02:09:12.154Z,33.63
2023-01-27T02:12:01.646Z,34.33
2023-01-27T02:14:52.169Z,34.07
2023-01-27T02:17:43.614Z,32.63
2023-01-27T02:20:38.471Z,34.43
2023-01-27T02:23:38.214Z,33.53
2023-01-27T02:26:32.344Z,35.20
2023-01-27T02:29:22.942Z,31.70
2023-01-27T02:32:24.415Z,37.03
2023-01-27T02:35:20.864Z,33.00
2023-01-27T02:38:12.825Z,36.73
2023-01-27T02:41:06.131Z,34.77
2023-01-27T02:43:57.058Z,34.63
2023-01-27T02:46:45.820Z,37.40
2023-01-27T02:49:34.981Z,34.53
2023-01-27T02:52:24.455Z,36.20
2023-01-27T02:55:14.880Z,34.40
2023-01-27T02:58:03.778Z,35.00
2023-01-27T03:01:01.461Z,34.80
2023-01-27T03:03:51.391Z,34.00
2023-01-27T03:06:41.241Z,35.03
2023-01-27T03:09:31.415Z,34.20
2023-01-27T03:12:23.044Z,34.67
2023-01-27T03:15:30.417Z,35.47
2023-01-27T03:18:21.355Z,34.13
2023-01-27T03:21:11.510Z,36.63
2023-01-27T03:24:00.576Z,32.57
2023-01-27T03:26:49.600Z,33.97
2023-01-27T03:29:58.411Z,34.70
2023-01-27T03:32:51.887Z,29.40
2023-01-27T03:36:32.324Z,33.57
2023-01-27T03:39:38.324Z,32.77
2023-01-27T03:42:44.507Z,34.93
2023-01-27T03:45:50.473Z,36.43
2023-01-27T03:48:39.577Z,36.07
2023-01-27T03:51:30.147Z,39.30
2023-01-27T03:54:18.781Z,30.97
2023-01-27T03:57:07.502Z,33.57
2023-01-27T04:00:01.631Z,32.97
2023-01-27T04:03:07.834Z,33.40
2023-01-27T04:06:14.124Z,37.77
2023-01-27T04:09:06.249Z,34.93
2023-01-27T04:11:56.308Z,34.40
2023-01-27T04:14:45.467Z,32.50
2023-01-27T04:17:38.937Z,35.40
2023-01-27T04:20:27.706Z,31.67
2023-01-27T04:23:16.359Z,33.17
2023-01-27T04:26:06.678Z,30.57
2023-01-27T04:28:55.340Z,26.97
2023-01-27T04:31:44.260Z,27.83
2023-01-27T04:34:33.431Z,29.43
2023-01-27T04:37:22.254Z,32.73
2023-01-27T04:40:12.318Z,34.07
2023-01-27T04:43:02.549Z,35.20
2023-01-27T04:45:51.334Z,35.67
2023-01-27T04:48:39.949Z,40.93
2023-01-27T04:51:28.901Z,43.80
2023-01-27T04:54:17.541Z,50.17
2023-01-27T04:57:06.195Z,59.63
2023-01-27T04:59:56.670Z,62.67
2023-01-27T05:02:46.182Z,61.70
2023-01-27T05:05:34.814Z,69.10
2023-01-27T05:08:23.421Z,67.97
2023-01-27T05:11:13.162Z,67.57
2023-01-27T05:14:02.136Z,69.23
2023-01-27T05:16:55.843Z,70.73
2023-01-27T05:19:44.610Z,73.87
2023-01-27T05:22:33.289Z,73.10
2023-01-27T05:25:21.909Z,72.27
2023-01-27T05:28:10.759Z,75.10
2023-01-27T05:31:03.543Z,83.97
2023-01-27T05:33:55.223Z,78.03
2023-01-27T05:36:43.899Z,71.33
2023-01-27T05:39:32.883Z,79.93
2023-01-27T05:42:21.713Z,76.43
2023-01-27T05:45:11.485Z,73.67
2023-01-27T05:48:00.140Z,76.43
2023-01-27T05:51:00.462Z,77.73
2023-01-27T05:53:49.173Z,79.33
2023-01-27T05:56:37.976Z,88.97
2023-01-27T05:59:26.697Z,77.27
2023-01-27T06:02:15.761Z,79.80
2023-01-27T06:05:04.771Z,81.37
2023-01-27T06:07:56.825Z,80.43
2023-01-27T06:10:46.572Z,72.83
2023-01-27T06:13:36.114Z,71.97
2023-01-27T06:16:25.271Z,72.03
2023-01-27T06:19:14.005Z,75.97
2023-01-27T06:22:03.167Z,74.47
2023-01-27T06:24:53.119Z,73.87
2023-01-27T06:27:41.768Z,77.87
2023-01-27T06:30:31.253Z,79.30
2023-01-27T06:33:19.995Z,78.17
2023-01-27T06:36:11.328Z,76.93
2023-01-27T06:39:00.142Z,69.77
2023-01-27T06:41:51.020Z,70.07
2023-01-27T06:44:39.640Z,76.47
2023-01-27T06:47:30.665Z,74.50
2023-01-27T06:50:22.971Z,71.67
2023-01-27T06:53:11.982Z,71.47
2023-01-27T06:56:02.433Z,66.53
2023-01-27T06:58:52.570Z,66.47
2023-01-27T07:01:41.233Z,64.83
2023-01-27T07:04:31.193Z,63.83
2023-01-27T07:07:20.033Z,66.80
2023-01-27T07:10:10.208Z,63.37
2023-01-27T07:13:07.052Z,63.17
2023-01-27T07:15:57.798Z,70.20
2023-01-27T07:18:46.492Z,65.80
2023-01-27T07:21:35.340Z,61.37
2023-01-27T07:24:24.176Z,65.10
2023-01-27T07:27:12.793Z,60.57
2023-01-27T07:30:01.562Z,68.83
2023-01-27T07:32:55.462Z,64.63
2023-01-27T07:35:44.251Z,66.30
2023-01-27T07:38:33.488Z,66.43
2023-01-27T07:41:23.135Z,61.60
2023-01-27T07:44:12.003Z,60.13
2023-01-27T07:47:01.469Z,61.90
2023-01-27T07:49:51.603Z,61.70
2023-01-27T07:52:40.151Z,54.53
2023-01-27T07:55:29.118Z,57.23
2023-01-27T07:58:17.891Z,60.83
2023-01-27T08:01:08.121Z,57.60
2023-01-27T08:03:56.810Z,54.63
2023-01-27T08:06:47.138Z,51.87
2023-01-27T08:09:35.829Z,47.53
2023-01-27T08:12:24.683Z,49.40
2023-01-27T08:15:14.780Z,50.17
2023-01-27T08:18:04.131Z,51.13
2023-01-27T08:20:54.552Z,41.27
2023-01-27T08:23:44.656Z,49.17
2023-01-27T08:26:33.315Z,44.67
2023-01-27T08:29:22.005Z,43.47
2023-01-27T08:32:13.481Z,38.43
2023-01-27T08:35:03.579Z,40.03
2023-01-27T08:37:52.453Z,40.37
2023-01-27T08:40:43.301Z,46.80
2023-01-27T08:43:32.493Z,39.07
2023-01-27T08:46:21.245Z,43.10
2023-01-27T08:49:09.907Z,40.57
2023-01-27T08:51:58.641Z,43.30
2023-01-27T08:54:47.337Z,46.20
2023-01-27T08:57:37.961Z,49.83
2023-01-27T09:00:27.230Z,44.43
2023-01-27T09:03:15.918Z,47.20
2023-01-27T09:06:05.082Z,37.90
2023-01-27T09:09:09.429Z,43.53
2023-01-27T09:12:00.052Z,46.30
2023-01-27T09:14:50.054Z,43.13
2023-01-27T09:17:38.826Z,43.77
2023-01-27T09:20:27.464Z,44.10
2023-01-27T09:23:16.135Z,39.60
2023-01-27T09:26:04.796Z,42.37
2023-01-27T09:28:53.486Z,38.47
2023-01-27T09:31:43.669Z,40.93
2023-01-27T09:34:32.898Z,40.60
2023-01-27T09:37:21.635Z,45.47
2023-01-27T09:40:19.689Z,39.87
2023-01-27T09:43:33.741Z,37.37
2023-01-27T09:47:00.037Z,40.93
2023-01-27T09:50:06.623Z,38.27
2023-01-27T09:53:26.906Z,41.10
2023-01-27T09:56:23.829Z,35.07
2023-01-27T09:59:25.161Z,40.40
2023-01-27T10:02:29.192Z,37.97
2023-01-27T10:05:41.481Z,27.23
2023-01-27T10:08:54.827Z,30.37
2023-01-27T10:11:52.886Z,32.47
2023-01-27T10:14:49.489Z,29.20
2023-01-27T10:17:48.167Z,31.10
2023-01-27T10:20:42.986Z,29.40
2023-01-27T10:23:43.655Z,31.00
2023-01-27T10:26:37.160Z,35.20
2023-01-27T10:29:27.309Z,37.60
2023-01-27T10:32:26.826Z,31.23
2023-01-27T10:35:21.085Z,31.27
2023-01-27T10:38:18.621Z,30.40
2023-01-27T10:41:20.006Z,32.10
2023-01-27T10:44:38.603Z,32.20
2023-01-27T10:47:43.561Z,32.53
2023-01-27T10:50:38.844Z,31.47
2023-01-27T10:53:33.807Z,31.37
2023-01-27T10:56:32.722Z,30.17
2023-01-27T10:59:28.675Z,32.33
2023-01-27T11:02:26.578Z,34.87
2023-01-27T11:05:20.075Z,31.37
2023-01-27T11:08:17.595Z,37.60
2023-01-27T11:11:27.298Z,36.93
2023-01-27T11:14:20.211Z,39.83
2023-01-27T11:17:17.280Z,34.53
2023-01-27T11:20:13.927Z,33.23
2023-01-27T11:23:12.082Z,36.30
2023-01-27T11:26:08.755Z,41.27
2023-01-27T11:29:09.764Z,43.83
2023-01-27T11:32:05.158Z,43.40
2023-01-27T11:35:03.165Z,42.00
2023-01-27T11:38:00.653Z,47.97
2023-01-27T11:40:55.919Z,46.43
2023-01-27T11:43:46.510Z,48.90
2023-01-27T11:46:36.448Z,49.87
2023-01-27T11:49:28.716Z,54.50
2023-01-27T11:52:21.177Z,48.07
2023-01-27T11:55:17.945Z,48.37
2023-01-27T11:58:14.943Z,46.33
2023-01-27T12:01:11.176Z,44.10
2023-01-27T12:04:04.887Z,47.77
2023-01-27T12:06:57.972Z,42.30
2023-01-27T12:09:46.735Z,43.20
2023-01-27T12:12:39.164Z,36.13
2023-01-27T12:15:31.251Z,37.50
2023-01-27T12:18:23.726Z,41.40
2023-01-27T12:21:12.816Z,46.60
2023-01-27T12:24:02.518Z,48.13
2023-01-27T12:26:54.902Z,52.47
2023-01-27T12:29:48.782Z,47.80
2023-01-27T12:32:41.739Z,50.17
2023-01-27T12:35:35.975Z,51.03
2023-01-27T12:38:27.676Z,51.40
2023-01-27T12:41:23.977Z,54.20
2023-01-27T12:44:18.398Z,60.80
2023-01-27T12:47:24.769Z,56.43
2023-01-27T12:50:24.701Z,49.97
2023-01-27T12:53:16.432Z,60.30
2023-01-27T12:56:13.367Z,53.70
2023-01-27T12:59:03.812Z,63.90
2023-01-27T13:02:01.856Z,58.97
2023-01-27T13:04:54.341Z,55.87
2023-01-27T13:07:46.748Z,53.23
2023-01-27T13:10:37.047Z,58.10
2023-01-27T13:13:28.004Z,54.07
2023-01-27T13:16:29.685Z,55.10
2023-01-27T13:19:20.178Z,55.03
2023-01-27T13:22:11.540Z,55.87
2023-01-27T13:25:03.338Z,55.03
2023-01-27T13:27:59.234Z,66.87
2023-01-27T13:30:52.600Z,61.50
2023-01-27T13:33:48.043Z,68.63
2023-01-27T13:36:41.626Z,68.33
2023-01-27T13:39:44.272Z,67.27
2023-01-27T13:42:41.141Z,60.17
2023-01-27T13:45:40.341Z,64.80
2023-01-27T13:48:34.088Z,69.07
2023-01-27T13:51:25.206Z,69.20
2023-01-27T13:54:16.771Z,60.03
2023-01-27T13:57:36.985Z,64.37
2023-01-27T14:00:33.813Z,69.73
2023-01-27T14:04:06.128Z,68.70
2023-01-27T14:07:03.773Z,72.33
2023-01-27T14:10:05.105Z,72.00
2023-01-27T14:13:08.504Z,73.80
2023-01-27T14:16:08.732Z,76.53
2023-01-27T14:19:03.829Z,66.20
2023-01-27T14:21:58.316Z,69.67
2023-01-27T14:24:53.985Z,67.33
2023-01-27T14:27:47.887Z,67.23
2023-01-27T14:30:41.529Z,68.87
2023-01-27T14:33:44.713Z,77.50
2023-01-27T14:36:41.581Z,76.07
2023-01-27T14:39:40.203Z,77.53
2023-01-27T14:42:37.503Z,68.77
2023-01-27T14:45:30.280Z,81.07
2023-01-27T14:48:41.792Z,76.83
2023-01-27T14:51:40.229Z,70.50
2023-01-27T14:54:53.725Z,69.87
2023-01-27T14:57:53.244Z,77.90
2023-01-27T15:00:50.489Z,72.27
2023-01-27T15:04:08.959Z,72.73
2023-01-27T15:07:07.387Z,74.80
2023-01-27T15:10:07.312Z,72.93
2023-01-27T15:13:39.710Z,71.40
2023-01-27T15:16:39.578Z,70.93
2023-01-27T15:19:48.787Z,69.80
2023-01-27T15:23:03.073Z,69.57
2023-01-27T15:25:55.115Z,73.20
2023-01-27T15:28:45.678Z,75.43
2023-01-27T15:31:34.938Z,81.83
2023-01-27T15:34:24.614Z,83.60
2023-01-27T15:37:23.779Z,78.63
2023-01-27T15:40:18.595Z,79.63
2023-01-27T15:43:15.528Z,81.77
2023-01-27T15:46:25.394Z,80.30
2023-01-27T15:49:20.644Z,80.57
2023-01-27T15:52:26.426Z,88.20
2023-01-27T15:55:28.816Z,89.53
2023-01-27T15:58:28.801Z,86.43
2023-01-27T16:01:27.818Z,85.80
2023-01-27T16:04:19.439Z,85.40
2023-01-27T16:07:23.161Z,87.30
2023-01-27T16:10:21.260Z,85.67
2023-01-27T16:13:28.165Z,97.00
2023-01-27T16:16:36.261Z,93.60
2023-01-27T16:19:30.507Z,92.47
2023-01-27T16:22:20.840Z,95.60
2023-01-27T16:25:22.851Z,93.90
2023-01-27T16:28:19.404Z,94.33
2023-01-27T16:31:17.616Z,90.93
2023-01-27T16:34:16.195Z,89.40
2023-01-27T16:37:16.751Z,92.13
2023-01-27T16:40:09.658Z,91.30
2023-01-27T16:43:03.429Z,93.23
2023-01-27T16:45:54.112Z,87.17
2023-01-27T16:48:48.062Z,83.90
2023-01-27T16:51:36.807Z,89.17
2023-01-27T16:54:27.941Z,82.50
2023-01-27T16:57:30.382Z,91.80
2023-01-27T17:00:23.015Z,86.23
2023-01-27T17:03:16.932Z,94.10
2023-01-27T17:06:10.340Z,96.40
2023-01-27T17:08:59.188Z,91.80
2023-01-27T17:11:47.866Z,94.43
2023-01-27T17:14:38.563Z,102.90
2023-01-27T17:17:29.001Z,94.97
2023-01-27T17:20:31.172Z,93.77
2023-01-27T17:23:31.633Z,92.83
2023-01-27T17:26:21.077Z,98.17
2023-01-27T17:29:18.416Z,97.37
2023-01-27T17:32:21.703Z,96.77
2023-01-27T17:35:23.038Z,94.73
2023-01-27T17:38:16.615Z,98.20
2023-01-27T17:41:23.791Z,99.63
2023-01-27T17:44:15.060Z,97.17
2023-01-27T17:47:04.324Z,101.03
2023-01-27T17:49:53.077Z,98.83
2023-01-27T17:52:52.186Z,100.13
2023-01-27T17:55:41.921Z,112.70
2023-01-27T17:58:45.111Z,99.47
2023-01-27T18:01:34.701Z,117.27
2023-01-27T18:04:28.389Z,108.07
2023-01-27T18:07:17.585Z,107.00
2023-01-27T18:10:24.980Z,114.60
2023-01-27T18:13:34.651Z,102.13
2023-01-27T18:16:26.287Z,104.00
2023-01-27T18:19:23.045Z,101.67
2023-01-27T18:22:15.230Z,99.50
2023-01-27T18:25:04.842Z,95.60
2023-01-27T18:27:55.336Z,104.13
2023-01-27T18:30:48.815Z,106.87
2023-01-27T18:33:40.466Z,103.07
2023-01-27T18:36:35.379Z,100.43
2023-01-27T18:39:36.039Z,102.30
2023-01-27T18:42:26.028Z,97.53
2023-01-27T18:45:19.066Z,96.20
2023-01-27T18:48:11.571Z,93.87
2023-01-27T18:51:01.811Z,93.00
2023-01-27T18:53:50.550Z,91.33
2023-01-27T18:56:39.254Z,93.50
2023-01-27T18:59:27.917Z,96.03
2023-01-27T19:02:17.659Z,91.33
2023-01-27T19:05:15.999Z,88.37
2023-01-27T19:08:07.239Z,86.93
2023-01-27T19:10:56.092Z,85.73
2023-01-27T19:13:45.314Z,89.10
2023-01-27T19:16:34.469Z,83.60
2023-01-27T19:19:23.235Z,85.33
2023-01-27T19:22:15.313Z,78.50
2023-01-27T19:25:05.987Z,85.63
2023-01-27T19:27:58.616Z,82.23
2023-01-27T19:30:48.573Z,84.77
2023-01-27T19:33:38.698Z,95.00
2023-01-27T19:36:31.302Z,87.80
2023-01-27T19:39:21.067Z,86.20
2023-01-27T19:42:14.654Z,87.73
2023-01-27T19:45:07.270Z,84.53
2023-01-27T19:48:00.035Z,83.53
2023-01-27T19:50:49.972Z,80.50
2023-01-27T19:53:39.169Z,76.53
2023-01-27T19:56:33.664Z,76.73
2023-01-27T19:59:23.741Z,77.00
2023-01-27T20:02:14.218Z,84.80
2023-01-27T20:05:03.102Z,79.13
2023-01-27T20:07:53.638Z,76.67
2023-01-27T20:10:42.386Z,75.90
2023-01-27T20:13:32.231Z,82.27
2023-01-27T20:16:26.895Z,77.93
2023-01-27T20:19:16.409Z,79.27
2023-01-27T20:22:05.148Z,81.67
2023-01-27T20:24:53.929Z,79.60
2023-01-27T20:27:43.748Z,84.17
2023-01-27T20:30:35.233Z,84.60
2023-01-27T20:33:25.303Z,82.43
2023-01-27T20:36:19.379Z,83.67
2023-01-27T20:39:08.244Z,78.97
2023-01-27T20:41:56.934Z,79.33
2023-01-27T20:44:45.730Z,76.03
2023-01-27T20:47:34.428Z,62.60
2023-01-27T20:50:26.260Z,59.57
2023-01-27T20:53:15.019Z,57.60
2023-01-27T20:56:04.809Z,55.47
2023-01-27T20:58:54.355Z,56.90
2023-01-27T21:01:44.782Z,52.13
2023-01-27T21:04:33.490Z,52.10
2023-01-27T21:07:24.462Z,56.73
2023-01-27T21:10:13.401Z,51.23
2023-01-27T21:13:02.409Z,54.73
2023-01-27T21:15:51.579Z,59.77
2023-01-27T21:18:40.220Z,58.07
2023-01-27T21:21:31.379Z,59.13
2023-01-27T21:24:24.682Z,57.40
2023-01-27T21:27:13.705Z,54.73
2023-01-27T21:30:02.620Z,58.50
2023-01-27T21:32:51.417Z,57.23
2023-01-27T21:35:40.391Z,55.23
2023-01-27T21:38:29.288Z,60.83
2023-01-27T21:41:45.980Z,60.37
2023-01-27T21:44:52.027Z,55.40
2023-01-27T21:47:40.675Z,52.13
2023-01-27T21:50:29.883Z,57.57
2023-01-27T21:53:18.550Z,56.07
2023-01-27T21:56:07.922Z,53.23
2023-01-27T21:58:58.651Z,57.73
2023-01-27T22:01:47.526Z,59.33
2023-01-27T22:04:36.231Z,58.37
2023-01-27T22:07:26.692Z,54.13
2023-01-27T22:10:17.343Z,59.03
2023-01-27T22:13:08.310Z,57.20
2023-01-27T22:15:58.491Z,54.40
2023-01-27T22:18:50.185Z,60.33
2023-01-27T22:21:38.982Z,61.50
2023-01-27T22:24:27.781Z,62.67
2023-01-27T22:27:16.460Z,56.37
2023-01-27T22:30:05.960Z,58.47
2023-01-27T22:32:56.030Z,59.53
2023-01-27T22:35:44.972Z,55.50
2023-01-27T22:38:37.975Z,61.67
2023-01-27T22:41:26.584Z,62.10
2023-01-27T22:44:16.088Z,60.97
2023-01-27T22:47:05.734Z,60.10
2023-01-27T22:49:55.806Z,58.43
2023-01-27T22:52:44.508Z,60.60
2023-01-27T22:55:33.236Z,55.27
2023-01-27T22:58:22.047Z,60.33
2023-01-27T23:01:11.162Z,57.10
2023-01-27T23:04:00.017Z,59.07
2023-01-27T23:06:50.082Z,60.17
2023-01-27T23:09:38.979Z,57.13
2023-01-27T23:12:27.642Z,52.50
2023-01-27T23:15:16.855Z,59.80
2023-01-27T23:18:11.425Z,60.30
2023-01-27T23:21:05.012Z,58.13
2023-01-27T23:23:55.620Z,60.83
2023-01-27T23:26:44.652Z,54.87
2023-01-27T23:29:33.324Z,59.30
2023-01-27T23:32:22.005Z,56.40
2023-01-27T23:35:14.267Z,54.63
2023-01-27T23:38:03.631Z,51.27
2023-01-27T23:40:55.302Z,51.37
2023-01-27T23:43:43.910Z,58.43
2023-01-27T23:46:32.900Z,58.10
2023-01-27T23:49:21.757Z,56.63
2023-01-27T23:52:10.583Z,52.90
2023-01-27T23:54:59.295Z,53.30
2023-01-27T23:57:49.353Z,57.20
